Time;durP1;ratioP1;P1;durP2;ratioP2;P2;SDS_P1;SDS_P2;PMS_P1;PMS_P2;Temp;Humidity;BMP_temperature;BMP_pressure;BME280_temperature;BME280_humidity;BME280_pressure;Samples;Min_cycle;Max_cycle;Signal;HPM_P1;HPM_P2
2023/09/01 00:00:03;;;;;;;3.97;3.53;;;;;;;13.53;100.00;95698.53;5105062;27;20039;-71
2023/09/01 00:02:28;;;;;;;3.95;3.50;;;;;;;13.51;100.00;95701.38;5108007;28;20023;-71
2023/09/01 00:04:55;;;;;;;3.25;3.05;;;;;;;13.48;100.00;95703.50;5108922;27;20028;-71
2023/09/01 00:07:20;;;;;;;5.60;3.55;;;;;;;13.40;100.00;95710.38;5106689;28;20024;-71
2023/09/01 00:09:45;;;;;;;4.82;3.15;;;;;;;13.42;100.00;95708.41;5097302;28;20035;-72
2023/09/01 00:12:11;;;;;;;3.75;3.22;;;;;;;13.43;100.00;95702.16;5104270;28;20023;-71
2023/09/01 00:14:36;;;;;;;3.45;3.15;;;;;;;13.45;100.00;95718.69;5097451;28;20527;-71
2023/09/01 00:17:02;;;;;;;4.15;3.47;;;;;;;13.40;100.00;95722.75;5104206;28;20852;-71
2023/09/01 00:19:27;;;;;;;3.80;3.50;;;;;;;13.36;100.00;95738.09;5107794;28;20533;-71
2023/09/01 00:21:53;;;;;;;8.02;3.47;;;;;;;13.27;100.00;95755.78;5106956;28;20035;-71
2023/09/01 00:24:18;;;;;;;3.13;2.92;;;;;;;13.24;100.00;95768.47;5102253;28;20031;-71
2023/09/01 00:26:44;;;;;;;5.45;3.08;;;;;;;13.22;100.00;95771.25;5110457;28;20127;-71
2023/09/01 00:29:09;;;;;;;3.13;2.88;;;;;;;13.20;100.00;95761.84;5104712;28;20860;-71
2023/09/01 00:31:35;;;;;;;3.05;2.85;;;;;;;13.12;100.00;95750.22;5105886;28;20048;-71
2023/09/01 00:34:00;;;;;;;3.55;3.03;;;;;;;13.04;100.00;95769.53;5102982;28;20028;-71
2023/09/01 00:36:25;;;;;;;4.38;3.22;;;;;;;13.00;100.00;95773.44;5105877;28;20024;-71
2023/09/01 00:38:51;;;;;;;3.10;2.80;;;;;;;12.99;100.00;95786.81;5098799;28;20035;-71
2023/09/01 00:41:16;;;;;;;7.55;3.13;;;;;;;12.96;100.00;95793.22;5099437;28;20076;-71
2023/09/01 00:43:42;;;;;;;3.55;2.85;;;;;;;12.95;100.00;95812.72;5108136;27;20031;-71
2023/09/01 00:46:07;;;;;;;3.70;3.40;;;;;;;12.91;100.00;95835.16;5090539;28;20080;-71
2023/09/01 00:48:33;;;;;;;2.97;2.72;;;;;;;12.91;100.00;95843.06;5099724;28;20052;-71
2023/09/01 00:50:58;;;;;;;3.85;2.70;;;;;;;12.89;100.00;95837.13;5105041;27;20530;-71
2023/09/01 00:53:25;;;;;;;4.30;2.78;;;;;;;12.93;100.00;95829.69;5106016;27;20576;-71
2023/09/01 00:55:52;;;;;;;4.22;3.28;;;;;;;12.91;100.00;95811.38;5109953;27;20415;-71
2023/09/01 00:58:18;;;;;;;3.35;3.08;;;;;;;12.90;100.00;95813.16;5104650;27;20027;-71
2023/09/01 01:00:44;;;;;;;3.40;3.10;;;;;;;12.92;100.00;95822.75;5106216;27;20092;-71
2023/09/01 01:03:10;;;;;;;4.68;3.00;;;;;;;12.94;100.00;95834.84;5113326;27;20031;-71
2023/09/01 01:05:39;;;;;;;3.50;2.72;;;;;;;12.97;100.00;95837.16;5109527;27;20111;-71
2023/09/01 01:08:24;;;;;;;3.45;3.00;;;;;;;12.98;100.00;95848.59;5107543;27;20037;-71
2023/09/01 01:10:57;;;;;;;4.47;2.55;;;;;;;12.89;100.00;95867.00;5097994;27;20039;-71
2023/09/01 01:13:30;;;;;;;3.15;2.78;;;;;;;12.88;100.00;95881.19;5111141;27;20035;-71
2023/09/01 01:15:57;;;;;;;5.45;2.90;;;;;;;12.92;100.00;95886.16;5108142;27;20031;-70
2023/09/01 01:18:24;;;;;;;5.68;3.03;;;;;;;12.93;100.00;95895.75;5117004;27;20502;-71
2023/09/01 01:21:04;;;;;;;4.15;3.28;;;;;;;12.92;100.00;95902.00;5114661;27;20020;-70
2023/09/01 01:23:31;;;;;;;3.45;3.15;;;;;;;12.93;100.00;95916.88;5107118;27;20035;-70
2023/09/01 01:25:56;;;;;;;2.95;2.78;;;;;;;12.94;100.00;95929.16;5103660;27;20500;-71
2023/09/01 01:28:22;;;;;;;3.30;2.92;;;;;;;12.93;100.00;95930.94;5113425;27;20549;-70
2023/09/01 01:30:49;;;;;;;3.03;2.65;;;;;;;12.93;100.00;95933.59;5112749;27;20127;-71
2023/09/01 01:33:41;;;;;;;3.10;2.80;;;;;;;12.90;100.00;95925.97;5105853;27;20770;-71
2023/09/01 01:36:34;;;;;;;2.83;2.63;;;;;;;12.88;100.00;95930.56;5101362;27;20415;-71
2023/09/01 01:39:05;;;;;;;3.20;3.00;;;;;;;12.88;100.00;95928.75;5116260;28;20039;-71
2023/09/01 01:42:07;;;;;;;2.63;2.53;;;;;;;12.87;100.00;95945.59;5116289;27;20023;-71
2023/09/01 01:44:39;;;;;;;3.78;2.85;;;;;;;12.90;100.00;95965.59;5108527;28;20047;-70
2023/09/01 01:47:06;;;;;;;3.20;2.92;;;;;;;12.91;100.00;95969.91;5108897;27;20031;-71
2023/09/01 01:49:32;;;;;;;2.72;2.53;;;;;;;12.89;100.00;95983.25;5114607;27;20660;-71
2023/09/01 01:51:58;;;;;;;3.00;2.58;;;;;;;12.87;100.00;96000.25;5117310;27;20090;-71
2023/09/01 01:54:24;;;;;;;4.38;2.47;;;;;;;12.82;100.00;95991.91;5108860;27;20019;-71
2023/09/01 01:56:49;;;;;;;2.85;2.67;;;;;;;12.81;100.00;95979.69;5110420;27;20023;-71
2023/09/01 01:59:15;;;;;;;3.00;2.80;;;;;;;12.81;100.00;95984.97;5108259;27;20020;-71
2023/09/01 02:01:40;;;;;;;3.78;3.30;;;;;;;12.80;100.00;95984.16;5110057;28;20055;-71
2023/09/01 02:04:06;;;;;;;3.33;3.03;;;;;;;12.79;100.00;95992.22;5115323;27;20494;-71
2023/09/01 02:06:31;;;;;;;3.85;2.97;;;;;;;12.79;100.00;96022.13;5116791;27;20074;-71
2023/09/01 02:08:57;;;;;;;3.35;3.15;;;;;;;12.80;100.00;96037.00;5110956;27;20103;-71
2023/09/01 02:11:22;;;;;;;5.68;3.15;;;;;;;12.82;100.00;96050.03;5110682;27;20071;-72
2023/09/01 02:13:48;;;;;;;4.25;2.60;;;;;;;12.83;100.00;96046.47;5106652;27;20134;-71
2023/09/01 02:16:14;;;;;;;2.80;2.60;;;;;;;12.80;100.00;96046.72;5105324;27;20026;-71
2023/09/01 02:18:40;;;;;;;2.60;2.40;;;;;;;12.76;100.00;96059.41;5105921;27;20070;-71
2023/09/01 02:21:05;;;;;;;3.40;2.40;;;;;;;12.78;100.00;96067.19;5112847;27;20018;-71
2023/09/01 02:23:30;;;;;;;2.67;2.50;;;;;;;12.75;100.00;96066.50;5114155;27;20093;-71
2023/09/01 02:25:56;;;;;;;3.85;3.00;;;;;;;12.72;100.00;96076.53;5105886;27;20110;-71
2023/09/01 02:28:21;;;;;;;3.10;2.80;;;;;;;12.73;100.00;96110.72;5105243;27;20027;-71
2023/09/01 02:30:47;;;;;;;2.95;2.70;;;;;;;12.77;100.00;96110.44;5104075;28;20053;-71
2023/09/01 02:33:12;;;;;;;6.22;2.65;;;;;;;12.81;100.00;96117.06;5112828;28;20455;-70
2023/09/01 02:35:44;;;;;;;2.42;2.33;;;;;;;12.82;100.00;96119.59;5101909;28;20016;-71
2023/09/01 02:38:11;;;;;;;2.72;2.60;;;;;;;12.82;100.00;96137.25;5104916;28;20016;-71
2023/09/01 02:40:36;;;;;;;3.17;2.60;;;;;;;12.77;100.00;96148.25;5107443;28;20040;-70
2023/09/01 02:43:03;;;;;;;2.83;2.65;;;;;;;12.76;100.00;96154.53;5106274;28;20431;-70
2023/09/01 02:45:29;;;;;;;2.75;2.55;;;;;;;12.70;100.00;96178.84;5098109;28;20039;-70
2023/09/01 02:47:54;;;;;;;3.20;2.60;;;;;;;12.68;100.00;96239.78;5101725;28;20050;-71
2023/09/01 02:50:20;;;;;;;6.10;2.88;;;;;;;12.65;100.00;96268.25;5093125;28;20059;-70
2023/09/01 02:52:45;;;;;;;2.67;2.53;;;;;;;12.63;100.00;96299.28;5107248;28;20511;-70
2023/09/01 02:55:12;;;;;;;2.83;2.63;;;;;;;12.66;100.00;96349.19;5107901;28;20023;-70
2023/09/01 02:57:37;;;;;;;3.55;2.60;;;;;;;12.70;100.00;96376.97;5104194;28;20096;-71
2023/09/01 03:00:21;;;;;;;2.83;2.60;;;;;;;12.66;100.00;96386.16;5110859;28;20133;-71
2023/09/01 03:02:48;;;;;;;5.60;2.97;;;;;;;12.66;100.00;96693.44;5099963;28;20024;-71
2023/09/01 03:05:13;;;;;;;5.82;2.55;;;;;;;12.63;100.00;96769.47;5100087;28;20108;-70
2023/09/01 03:07:40;;;;;;;5.28;2.80;;;;;;;12.63;100.00;96798.53;5102090;28;20032;-71
2023/09/01 03:10:07;;;;;;;3.42;3.17;;;;;;;12.60;100.00;96824.25;5102155;28;20106;-71
2023/09/01 03:12:34;;;;;;;5.70;2.50;;;;;;;12.61;100.00;96844.41;5103423;28;20027;-71
2023/09/01 03:14:59;;;;;;;5.63;3.15;;;;;;;12.59;100.00;96850.78;5101486;28;20024;-70
2023/09/01 03:17:25;;;;;;;3.22;2.92;;;;;;;12.59;100.00;96856.91;5101300;28;20064;-70
2023/09/01 03:19:50;;;;;;;2.78;2.67;;;;;;;12.56;100.00;96849.25;5101542;28;20173;-70
2023/09/01 03:22:16;;;;;;;3.17;2.88;;;;;;;12.55;100.00;96876.63;5098790;28;20031;-70
2023/09/01 03:24:41;;;;;;;4.10;2.95;;;;;;;12.49;100.00;96892.13;5107456;28;20028;-70
2023/09/01 03:27:06;;;;;;;3.10;2.70;;;;;;;12.50;100.00;96934.28;5110710;28;20062;-70
2023/09/01 03:29:32;;;;;;;3.05;2.85;;;;;;;12.46;100.00;96965.38;5101699;28;20550;-70
2023/09/01 03:31:57;;;;;;;3.53;2.95;;;;;;;12.46;100.00;96988.28;5061659;27;1247486;-70
2023/09/01 03:34:23;;;;;;;3.00;2.70;;;;;;;12.49;100.00;97003.91;5106173;28;20051;-71
2023/09/01 03:36:49;;;;;;;2.85;2.60;;;;;;;12.48;100.00;97018.06;5101103;28;20027;-71
2023/09/01 03:39:15;;;;;;;2.72;2.53;;;;;;;12.47;100.00;97042.78;5108696;28;20072;-71
2023/09/01 03:41:41;;;;;;;2.60;2.40;;;;;;;12.44;100.00;97057.09;5106766;27;20540;-70
2023/09/01 03:44:07;;;;;;;4.25;2.88;;;;;;;12.45;100.00;97084.34;5104186;27;20121;-70
2023/09/01 03:46:32;;;;;;;2.50;2.33;;;;;;;12.44;100.00;97096.72;5111598;28;20035;-70
2023/09/01 03:48:58;;;;;;;2.80;2.55;;;;;;;12.44;100.00;97098.50;5111161;27;20051;-71
2023/09/01 03:51:23;;;;;;;2.92;2.75;;;;;;;12.41;100.00;97101.38;5115398;27;20509;-70
2023/09/01 03:53:49;;;;;;;5.15;2.75;;;;;;;12.38;100.00;97101.63;5113299;27;20219;-71
2023/09/01 03:56:17;;;;;;;2.75;2.55;;;;;;;12.37;100.00;97103.41;5105694;27;20083;-71
2023/09/01 03:58:43;;;;;;;3.05;2.72;;;;;;;12.41;100.00;97109.31;5112854;27;20028;-70
2023/09/01 04:01:11;;;;;;;2.80;2.60;;;;;;;12.42;100.00;97103.06;5110687;28;20064;-71
2023/09/01 04:03:40;;;;;;;4.80;2.90;;;;;;;12.44;100.00;97104.63;5101518;27;20101;-70
2023/09/01 04:06:05;;;;;;;2.90;2.70;;;;;;;12.44;100.00;97103.78;5105316;28;20034;-71
2023/09/01 04:08:32;;;;;;;2.78;2.53;;;;;;;12.45;100.00;97097.53;5111771;27;20020;-70
2023/09/01 04:10:57;;;;;;;4.97;3.00;;;;;;;12.46;100.00;97101.84;5105585;27;20028;-70
2023/09/01 04:13:23;;;;;;;2.78;2.58;;;;;;;12.45;100.00;97095.75;5107517;28;20362;-70
2023/09/01 04:15:49;;;;;;;4.10;2.63;;;;;;;12.46;100.00;97101.84;5099011;28;20028;-70
2023/09/01 04:18:15;;;;;;;3.08;2.83;;;;;;;12.45;100.00;97097.53;5105254;28;20091;-70
2023/09/01 04:20:46;;;;;;;3.00;2.80;;;;;;;12.42;100.00;97095.13;5106848;28;20047;-70
2023/09/01 04:23:11;;;;;;;5.43;2.80;;;;;;;12.39;100.00;97106.81;5113905;28;20048;-71
2023/09/01 04:25:38;;;;;;;6.13;5.63;;;;;;;12.40;100.00;97090.00;5116264;28;20031;-71
2023/09/01 04:28:04;;;;;;;6.00;5.50;;;;;;;12.39;100.00;97100.66;5110288;28;20024;-71
2023/09/01 04:30:30;;;;;;;3.67;3.38;;;;;;;12.35;100.00;97086.84;5104333;28;20047;-71
2023/09/01 04:32:55;;;;;;;5.97;3.25;;;;;;;12.30;100.00;97087.22;5094117;28;20137;-71
2023/09/01 04:35:21;;;;;;;3.13;2.83;;;;;;;12.29;100.00;97087.31;5116745;28;20032;-70
2023/09/01 04:37:46;;;;;;;3.65;2.70;;;;;;;12.30;100.00;97089.00;5118412;28;20029;-71
2023/09/01 04:40:12;;;;;;;3.65;3.35;;;;;;;12.31;100.00;97077.47;5107267;28;20026;-70
2023/09/01 04:42:37;;;;;;;4.93;3.10;;;;;;;12.24;100.00;97073.66;5112764;28;20064;-71
2023/09/01 04:45:04;;;;;;;3.40;3.17;;;;;;;12.20;100.00;97073.03;5105749;28;20065;-71
2023/09/01 04:47:29;;;;;;;4.03;2.95;;;;;;;12.15;100.00;97068.09;5105375;28;20023;-71
2023/09/01 04:49:55;;;;;;;3.40;2.92;;;;;;;12.08;100.00;97060.78;5127355;28;20027;-71
2023/09/01 04:52:20;;;;;;;5.50;3.35;;;;;;;11.98;100.00;97058.81;5110378;28;20471;-71
2023/09/01 04:54:46;;;;;;;4.75;3.10;;;;;;;11.95;100.00;97053.78;5112492;28;20073;-71
2023/09/01 04:57:11;;;;;;;4.88;3.53;;;;;;;11.91;100.00;97047.06;5100029;28;20188;-70
2023/09/01 04:59:37;;;;;;;5.93;3.20;;;;;;;11.89;100.00;97036.59;5106337;28;20015;-70
2023/09/01 05:02:02;;;;;;;4.35;3.10;;;;;;;11.93;100.00;97039.00;5109723;28;20044;-71
2023/09/01 05:04:28;;;;;;;5.18;3.20;;;;;;;11.92;100.00;97032.03;5106935;28;20027;-71
2023/09/01 05:06:53;;;;;;;4.75;2.70;;;;;;;11.90;100.00;97025.09;5102959;28;20507;-71
2023/09/01 05:09:19;;;;;;;5.18;2.90;;;;;;;11.92;100.00;97027.63;5094927;28;20507;-71
2023/09/01 05:11:44;;;;;;;3.45;3.15;;;;;;;11.93;100.00;97009.97;5098256;28;20028;-71
2023/09/01 05:14:10;;;;;;;4.85;3.17;;;;;;;11.89;100.00;97010.22;5109732;28;20051;-71
2023/09/01 05:16:35;;;;;;;3.40;3.13;;;;;;;11.90;100.00;97013.69;5104934;28;20016;-71
2023/09/01 05:19:01;;;;;;;3.28;3.00;;;;;;;11.87;100.00;97001.56;5110435;28;20075;-71
2023/09/01 05:21:26;;;;;;;3.58;3.08;;;;;;;11.89;100.00;97009.38;5104739;28;20023;-70
2023/09/01 05:23:51;;;;;;;5.85;3.08;;;;;;;11.92;100.00;97009.16;5105486;28;20024;-71
2023/09/01 05:26:17;;;;;;;3.38;3.10;;;;;;;11.92;100.00;97003.00;5112907;28;20047;-71
2023/09/01 05:28:42;;;;;;;5.68;3.30;;;;;;;11.89;100.00;96990.91;5110152;27;20027;-70
2023/09/01 05:31:07;;;;;;;3.65;2.72;;;;;;;11.89;100.00;96988.28;5105776;27;20046;-70
2023/09/01 05:33:33;;;;;;;5.07;2.97;;;;;;;11.88;100.00;96982.13;5113288;27;20145;-71
2023/09/01 05:35:58;;;;;;;7.00;5.60;;;;;;;11.90;100.00;96984.69;5107488;27;20024;-71
2023/09/01 05:38:24;;;;;;;5.78;4.40;;;;;;;11.86;100.00;96981.41;5114985;27;20031;-70
2023/09/01 05:40:56;;;;;;;3.88;3.22;;;;;;;11.89;100.00;96977.72;5102666;27;20353;-70
2023/09/01 05:43:23;;;;;;;4.82;4.25;;;;;;;11.88;100.00;96974.22;5108434;27;20038;-71
2023/09/01 05:45:48;;;;;;;3.00;2.80;;;;;;;11.89;100.00;96969.81;5116577;27;20396;-71
2023/09/01 05:48:13;;;;;;;6.35;3.40;;;;;;;11.91;100.00;96970.53;5117620;27;20019;-72
2023/09/01 05:50:39;;;;;;;2.78;2.58;;;;;;;11.91;100.00;96967.88;5098555;28;20055;-70
2023/09/01 05:53:05;;;;;;;3.83;3.53;;;;;;;11.89;100.00;96969.81;5112003;27;20442;-70
2023/09/01 05:55:30;;;;;;;4.68;3.83;;;;;;;11.88;100.00;96961.03;5112574;27;20057;-70
2023/09/01 05:57:56;;;;;;;6.95;3.20;;;;;;;11.90;100.00;96964.38;5116259;27;20098;-71
2023/09/01 06:00:23;;;;;;;3.53;3.28;;;;;;;11.90;100.00;96963.56;5108244;27;20713;-71
2023/09/01 06:02:48;;;;;;;3.40;3.10;;;;;;;11.98;100.00;96962.97;5117731;27;20030;-70
2023/09/01 06:05:14;;;;;;;3.90;3.50;;;;;;;11.96;100.00;96962.25;5106826;27;20024;-70
2023/09/01 06:07:39;;;;;;;4.93;3.45;;;;;;;11.96;100.00;96970.19;5111679;27;20030;-71
2023/09/01 06:10:05;;;;;;;3.95;3.60;;;;;;;12.00;100.00;96977.72;5114192;27;20612;-70
2023/09/01 06:12:31;;;;;;;3.58;3.30;;;;;;;12.02;100.00;96973.19;5112773;27;20020;-70
2023/09/01 06:14:56;;;;;;;5.38;3.63;;;;;;;12.06;100.00;96962.41;5105142;27;20040;-70
2023/09/01 06:17:21;;;;;;;6.35;3.38;;;;;;;12.07;100.00;96969.38;5102517;28;20912;-70
2023/09/01 06:19:47;;;;;;;4.00;3.60;;;;;;;12.07;100.00;96970.19;5092710;28;20008;-70
2023/09/01 06:22:13;;;;;;;5.82;3.50;;;;;;;12.04;100.00;96959.88;5110179;27;20272;-70
2023/09/01 06:24:39;;;;;;;5.40;3.45;;;;;;;12.07;100.00;96964.91;5112101;27;20016;-71
2023/09/01 06:27:04;;;;;;;3.13;2.88;;;;;;;12.13;100.00;96968.88;5104687;27;20036;-70
2023/09/01 06:29:29;;;;;;;8.20;3.40;;;;;;;12.20;100.00;96966.59;5100188;27;20024;-70
2023/09/01 06:31:55;;;;;;;3.35;3.05;;;;;;;12.19;100.00;96973.66;5104751;27;20040;-71
2023/09/01 06:34:20;;;;;;;4.55;3.35;;;;;;;12.19;100.00;96973.66;5098509;27;20539;-70
2023/09/01 06:36:46;;;;;;;3.97;3.47;;;;;;;12.28;100.00;96977.38;5110515;27;20103;-70
2023/09/01 06:39:11;;;;;;;7.07;3.20;;;;;;;12.47;100.00;96979.41;5105646;27;20038;-72
2023/09/01 06:41:37;;;;;;;3.10;2.88;;;;;;;12.76;100.00;96986.81;5111310;27;20054;-71
2023/09/01 06:44:02;;;;;;;5.50;3.50;;;;;;;13.08;100.00;96996.56;5098827;27;20246;-71
2023/09/01 06:46:28;;;;;;;5.85;3.42;;;;;;;13.48;100.00;96999.56;5121044;27;20042;-71
2023/09/01 06:48:53;;;;;;;3.45;3.15;;;;;;;13.95;100.00;97015.88;5118576;27;20031;-71
2023/09/01 06:51:19;;;;;;;6.97;3.17;;;;;;;14.35;100.00;97058.47;5105206;28;20028;-71
2023/09/01 06:53:44;;;;;;;3.00;2.72;;;;;;;14.81;100.00;97104.84;5111176;28;20031;-71
2023/09/01 06:56:10;;;;;;;3.90;2.58;;;;;;;15.24;100.00;97155.91;5106560;27;20074;-71
2023/09/01 06:58:35;;;;;;;3.83;2.40;;;;;;;15.65;100.00;97205.47;5107642;28;20027;-71
2023/09/01 07:01:08;;;;;;;2.50;2.30;;;;;;;15.95;100.00;97231.13;5123199;27;20027;-71
2023/09/01 07:03:34;;;;;;;2.20;2.10;;;;;;;16.41;100.00;97250.03;5102351;27;20055;-71
2023/09/01 07:05:59;;;;;;;2.50;2.30;;;;;;;16.81;100.00;97256.13;5110513;27;20392;-71
2023/09/01 07:08:28;;;;;;;2.70;2.47;;;;;;;17.18;100.00;97207.47;5110526;27;20058;-72
2023/09/01 07:10:53;;;;;;;2.50;2.30;;;;;;;17.73;100.00;97165.00;5104682;27;20085;-72
2023/09/01 07:13:18;;;;;;;2.50;2.30;;;;;;;18.36;100.00;97069.09;5100027;27;20020;-72
2023/09/01 07:15:49;;;;;;;2.15;2.05;;;;;;;18.92;100.00;96967.31;5099124;28;20555;-72
2023/09/01 07:18:14;;;;;;;2.60;2.40;;;;;;;19.14;100.00;96833.28;5106411;27;20016;-72
2023/09/01 07:20:42;;;;;;;3.15;2.17;;;;;;;19.49;100.00;96741.41;5105325;27;20026;-72
2023/09/01 07:23:08;;;;;;;5.65;2.22;;;;;;;19.89;100.00;96572.09;5109507;27;20023;-72
2023/09/01 07:25:33;;;;;;;2.15;1.98;;;;;;;20.31;100.00;96491.50;5100936;28;20043;-72
2023/09/01 07:27:58;;;;;;;4.22;2.30;;;;;;;20.64;100.00;96405.53;5113850;27;20099;-72
2023/09/01 07:30:25;;;;;;;2.70;2.05;;;;;;;20.76;100.00;96387.16;5113597;27;20058;-72
2023/09/01 07:32:50;;;;;;;3.50;2.13;;;;;;;20.83;100.00;96347.13;5105205;27;20023;-72
2023/09/01 07:35:15;;;;;;;2.05;1.83;;;;;;;20.64;100.00;96346.69;5119065;27;20030;-71
2023/09/01 07:37:41;;;;;;;2.65;1.90;;;;;;;20.93;100.00;96360.19;5115391;28;20026;-71
2023/09/01 07:40:07;;;;;;;5.25;2.15;;;;;;;20.59;100.00;96365.16;5107921;27;20024;-73
2023/09/01 07:42:33;;;;;;;2.10;1.90;;;;;;;20.64;100.00;96402.03;5112120;27;20031;-74
2023/09/01 07:44:58;;;;;;;2.60;1.65;;;;;;;20.63;100.00;96363.78;5110425;27;20019;-73
2023/09/01 07:47:24;;;;;;;2.30;2.20;;;;;;;20.58;100.00;96358.16;5107246;28;20035;-73
2023/09/01 07:49:49;;;;;;;2.35;2.03;;;;;;;20.67;100.00;96364.19;5106462;27;20031;-72
2023/09/01 07:52:15;;;;;;;3.38;2.08;;;;;;;20.77;100.00;96343.34;5110558;27;20062;-72
2023/09/01 07:54:42;;;;;;;2.30;2.05;;;;;;;20.68;100.00;96353.31;5097322;28;20491;-72
2023/09/01 07:57:07;;;;;;;2.28;1.92;;;;;;;20.63;100.00;96395.88;5098685;28;20027;-72
2023/09/01 07:59:33;;;;;;;2.97;1.98;;;;;;;20.39;100.00;96402.34;5104924;28;20047;-72
2023/09/01 08:01:58;;;;;;;2.17;2.08;;;;;;;20.29;100.00;96387.44;5101050;27;20035;-72
2023/09/01 08:04:23;;;;;;;2.10;1.90;;;;;;;20.51;100.00;96411.56;5108531;27;20140;-72
2023/09/01 08:06:49;;;;;;;2.10;2.00;;;;;;;21.10;100.00;96344.69;5103427;28;20020;-72
2023/09/01 08:09:15;;;;;;;2.35;2.17;;;;;;;21.75;100.00;96310.56;5096206;28;20035;-73
2023/09/01 08:11:41;;;;;;;2.30;2.10;;;;;;;22.16;100.00;96274.06;5104058;28;20111;-73
2023/09/01 08:14:06;;;;;;;4.00;2.00;;;;;;;22.39;100.00;96181.69;5114717;27;20070;-73
2023/09/01 08:16:32;;;;;;;2.65;1.95;;;;;;;22.56;100.00;96152.63;5103037;28;20102;-72
2023/09/01 08:18:59;;;;;;;2.08;1.80;;;;;;;22.60;100.00;96156.53;5114310;28;20622;-72
2023/09/01 08:21:25;;;;;;;2.90;2.70;;;;;;;22.66;100.00;96154.91;5102951;28;20500;-72
2023/09/01 08:23:50;;;;;;;2.40;1.80;;;;;;;22.83;100.00;96133.00;5102877;28;20082;-72
2023/09/01 08:26:16;;;;;;;1.83;1.75;;;;;;;22.91;100.00;96116.66;5099244;28;20050;-72
2023/09/01 08:28:42;;;;;;;6.18;2.00;;;;;;;22.87;100.00;96110.88;5102608;28;20042;-72
2023/09/01 08:31:07;;;;;;;4.38;1.90;;;;;;;22.54;100.00;96109.09;5108582;28;20061;-72
2023/09/01 08:33:33;;;;;;;2.08;1.98;;;;;;;22.48;100.00;96155.53;5102747;28;20024;-72
2023/09/01 08:36:05;;;;;;;7.97;2.28;;;;;;;22.68;100.00;96125.19;5097568;28;20103;-72
2023/09/01 08:38:31;;;;;;;2.53;2.25;;;;;;;22.86;100.00;96109.25;5104180;28;20012;-72
2023/09/01 08:41:01;;;;;;;3.72;1.90;;;;;;;23.17;100.00;96080.88;5101018;28;20024;-72
2023/09/01 08:43:34;;;;;;;6.13;2.47;;;;;;;23.59;100.00;96044.75;5100549;28;20020;-72
2023/09/01 08:46:02;;;;;;;7.47;1.98;;;;;;;23.68;100.00;96059.56;5107840;28;20027;-72
2023/09/01 08:48:27;;;;;;;2.17;1.95;;;;;;;23.82;100.00;96041.50;5112314;28;20031;-72
2023/09/01 08:50:54;;;;;;;1.98;1.75;;;;;;;23.61;100.00;96010.44;5118752;28;20373;-72
2023/09/01 08:53:19;;;;;;;1.90;1.80;;;;;;;23.38;100.00;95984.94;5107239;28;20024;-72
2023/09/01 08:55:45;;;;;;;2.00;1.90;;;;;;;23.35;100.00;96000.66;5110887;28;20766;-72
2023/09/01 08:58:10;;;;;;;1.90;1.80;;;;;;;23.38;100.00;95984.09;5113865;28;20023;-72
2023/09/01 09:00:36;;;;;;;1.92;1.83;;;;;;;23.26;100.00;95965.19;5117345;28;20119;-72
2023/09/01 09:03:01;;;;;;;1.80;1.70;;;;;;;23.49;100.00;95961.94;5112740;28;20027;-72
2023/09/01 09:05:27;;;;;;;1.77;1.67;;;;;;;23.01;100.00;95947.09;5110520;27;20028;-71
2023/09/01 09:08:20;;;;;;;1.73;1.63;;;;;;;23.27;100.00;95934.59;5106865;27;20051;-72
2023/09/01 09:10:48;;;;;;;1.80;1.70;;;;;;;23.21;100.00;95925.53;5099934;27;20047;-71
2023/09/01 09:13:23;;;;;;;1.75;1.65;;;;;;;23.07;100.00;95908.66;5105670;27;20106;-72
2023/09/01 09:16:14;;;;;;;2.10;2.00;;;;;;;23.05;100.00;95924.16;5105734;27;20039;-73
2023/09/01 09:18:45;;;;;;;1.80;1.70;;;;;;;23.07;100.00;95919.41;5102760;28;20031;-71
2023/09/01 09:21:27;;;;;;;2.17;2.00;;;;;;;22.75;100.00;95911.31;5116162;27;20072;-71
2023/09/01 09:24:02;;;;;;;2.00;1.90;;;;;;;22.52;100.00;95933.28;5118102;27;20731;-71
2023/09/01 09:26:29;;;;;;;2.40;1.90;;;;;;;22.49;100.00;95928.34;5115760;27;20027;-70
2023/09/01 09:29:06;;;;;;;1.85;1.75;;;;;;;22.52;100.00;95918.00;5108914;27;20080;-70
2023/09/01 09:31:44;;;;;;;2.35;2.08;;;;;;;22.49;100.00;95902.34;5112066;27;20050;-70
2023/09/01 09:34:17;;;;;;;2.53;2.17;;;;;;;22.51;100.00;95920.91;5107736;27;20514;-70
2023/09/01 09:36:45;;;;;;;2.10;1.98;;;;;;;22.55;100.00;95914.09;5102218;27;20032;-70
2023/09/01 09:39:24;;;;;;;2.33;2.13;;;;;;;22.55;100.00;95916.78;5114259;27;20015;-70
2023/09/01 09:41:50;;;;;;;2.38;2.17;;;;;;;22.59;100.00;95934.09;5121041;27;20693;-70
2023/09/01 09:44:35;;;;;;;2.70;2.50;;;;;;;22.88;100.00;95899.69;5112004;27;20056;-71
2023/09/01 09:47:09;;;;;;;2.10;2.00;;;;;;;23.03;100.00;95900.22;5114194;27;20047;-71
2023/09/01 09:49:36;;;;;;;2.88;2.20;;;;;;;22.83;100.00;95899.50;5112221;27;20023;-72
2023/09/01 09:52:02;;;;;;;2.28;2.08;;;;;;;22.80;100.00;95881.97;5111433;27;20055;-72
2023/09/01 09:54:29;;;;;;;2.10;2.00;;;;;;;22.99;100.00;95874.03;5110657;27;20023;-72
2023/09/01 09:56:57;;;;;;;2.35;2.10;;;;;;;22.94;100.00;95855.06;5110183;27;20031;-72
2023/09/01 09:59:48;;;;;;;2.38;2.20;;;;;;;23.25;100.00;95811.28;5105571;28;20059;-71
2023/09/01 10:02:28;;;;;;;2.90;1.92;;;;;;;23.40;100.00;95788.63;5113555;27;20803;-72
2023/09/01 10:04:57;;;;;;;2.22;2.13;;;;;;;23.40;100.00;95751.84;5113871;27;20106;-72
2023/09/01 10:07:23;;;;;;;1.83;1.73;;;;;;;23.37;100.00;95741.56;5110440;27;20024;-71
2023/09/01 10:09:49;;;;;;;2.28;2.08;;;;;;;23.37;100.00;95751.47;5115165;27;20042;-71
2023/09/01 10:12:15;;;;;;;3.05;2.30;;;;;;;23.30;100.00;95747.00;5108902;28;20032;-71
2023/09/01 10:14:42;;;;;;;2.83;2.35;;;;;;;23.22;100.00;95735.69;5105445;27;20490;-71
2023/09/01 10:17:09;;;;;;;2.08;1.90;;;;;;;23.18;100.00;95746.88;5114435;27;20784;-71
2023/09/01 10:19:35;;;;;;;3.40;2.58;;;;;;;23.66;100.00;95719.56;5109983;27;20050;-70
2023/09/01 10:22:00;;;;;;;2.00;1.90;;;;;;;23.85;100.00;95696.19;5111756;27;20114;-71
2023/09/01 10:24:26;;;;;;;2.58;2.38;;;;;;;23.82;100.00;95697.44;5107315;27;20027;-71
2023/09/01 10:27:08;;;;;;;2.45;2.25;;;;;;;24.07;100.00;95679.59;5085939;27;20054;-71
2023/09/01 10:29:35;;;;;;;2.20;2.10;;;;;;;24.11;100.00;95681.59;5104124;27;20023;-74
2023/09/01 10:32:17;;;;;;;2.45;2.30;;;;;;;24.10;100.00;95687.19;5112855;27;20504;-71
2023/09/01 10:34:53;;;;;;;2.83;2.10;;;;;;;24.24;100.00;95679.75;5112780;27;20038;-73
2023/09/01 10:37:32;;;;;;;4.63;2.35;;;;;;;24.22;100.00;95671.09;5097209;27;20024;-73
2023/09/01 10:39:58;;;;;;;3.47;2.10;;;;;;;24.26;100.00;95672.28;5111296;27;20559;-69
2023/09/01 10:42:48;;;;;;;2.78;2.20;;;;;;;24.68;100.00;95663.38;5093171;28;20035;-69
2023/09/01 10:45:14;;;;;;;2.45;2.25;;;;;;;24.46;100.00;95667.44;5106293;28;20419;-68
2023/09/01 10:47:45;;;;;;;2.22;2.13;;;;;;;24.34;100.00;95671.97;5110311;28;20066;-69
2023/09/01 10:50:12;;;;;;;2.65;2.47;;;;;;;24.63;100.00;95660.53;5098727;28;20024;-70
2023/09/01 10:52:38;;;;;;;6.13;2.22;;;;;;;24.83;100.00;95671.03;5116191;27;20468;-69
2023/09/01 10:55:05;;;;;;;3.53;2.28;;;;;;;24.80;100.00;95699.22;5113607;27;20113;-67
2023/09/01 10:57:45;;;;;;;2.33;2.22;;;;;;;24.59;100.00;95685.22;5103353;27;20055;-68
2023/09/01 11:00:30;;;;;;;2.45;2.35;;;;;;;24.60;100.00;95678.78;5113406;27;20145;-66
2023/09/01 11:03:33;;;;;;;6.20;2.40;;;;;;;24.75;100.00;95702.59;5114624;27;20016;-67
2023/09/01 11:06:00;;;;;;;4.20;2.47;;;;;;;25.20;100.00;95721.16;5085482;28;20036;-67
2023/09/01 11:08:27;;;;;;;4.68;2.03;;;;;;;25.30;100.00;95734.84;5110096;27;20043;-67
2023/09/01 11:11:00;;;;;;;4.80;2.85;;;;;;;25.14;100.00;95728.28;5103683;27;20032;-67
2023/09/01 11:13:26;;;;;;;2.60;2.40;;;;;;;25.10;100.00;95724.41;5101896;27;20033;-67
2023/09/01 11:15:52;;;;;;;2.60;2.35;;;;;;;25.00;100.00;95725.00;5101202;27;20432;-67
2023/09/01 11:18:22;;;;;;;2.58;2.40;;;;;;;25.28;100.00;95742.34;5107194;28;20027;-66
2023/09/01 11:20:54;;;;;;;2.47;2.28;;;;;;;25.23;100.00;95753.00;5112295;27;20420;-66
2023/09/01 11:23:20;;;;;;;3.28;2.60;;;;;;;25.42;100.00;95743.75;5107442;27;20506;-67
2023/09/01 11:25:56;;;;;;;2.92;2.55;;;;;;;25.49;100.00;95753.59;5104380;27;20028;-67